Terminal Aerodrome Forecast
Issued by NWS Tulsa, OK

Home | Current Version | Previous Version | Text Only | Print | Product List | Glossary On
Versions: 1 2 3 4 5 6 7 8 9 10 11 12 13 14 15 16
987
FTUS44 KTSA 251120
TAFFSM
TAF
KFSM 251120Z 2512/2612 04003KT 3SM BR SCT005 SCT250
      TEMPO 2512/2514 1SM BR BKN002
     FM251400 09005KT P6SM SCT020 SCT250
     FM251800 22007KT P6SM SCT040 SCT250 PROB30 2523/2603 5SM -TSRA
      BKN040CB
     FM260300 09003KT P6SM BKN250=

USA.gov is the U.S. government's official web portal to all federal, state and local government web resources and services.